sensor_id;sensor_type;location;lat;lon;timestamp;pressure;altitude;pressure_sealevel;temperature;humidity
44140;BME280;29803;51.048;4.686;2024-02-23T00:00:59;98963.00;;;6.81;100.00
44140;BME280;29803;51.048;4.686;2024-02-23T00:03:30;98964.03;;;6.80;100.00
44140;BME280;29803;51.048;4.686;2024-02-23T00:06:00;98976.78;;;6.85;100.00
44140;BME280;29803;51.048;4.686;2024-02-23T00:08:30;98970.81;;;6.83;100.00
44140;BME280;29803;51.048;4.686;2024-02-23T00:11:01;98979.47;;;6.70;100.00
44140;BME280;29803;51.048;4.686;2024-02-23T00:13:32;98984.25;;;6.74;100.00
44140;BME280;29803;51.048;4.686;2024-02-23T00:16:02;98989.53;;;6.68;100.00
44140;BME280;29803;51.048;4.686;2024-02-23T00:18:33;98992.34;;;6.66;100.00
44140;BME280;29803;51.048;4.686;2024-02-23T00:21:03;98995.72;;;6.90;100.00
44140;BME280;29803;51.048;4.686;2024-02-23T00:23:34;98989.13;;;6.71;100.00
44140;BME280;29803;51.048;4.686;2024-02-23T00:26:05;99011.63;;;6.83;100.00
44140;BME280;29803;51.048;4.686;2024-02-23T00:28:35;98997.84;;;6.80;100.00
44140;BME280;29803;51.048;4.686;2024-02-23T00:31:06;99009.97;;;6.67;100.00
44140;BME280;29803;51.048;4.686;2024-02-23T00:33:36;99007.50;;;6.66;100.00
44140;BME280;29803;51.048;4.686;2024-02-23T00:36:07;99011.13;;;6.58;100.00
44140;BME280;29803;51.048;4.686;2024-02-23T00:38:38;99010.63;;;6.69;100.00
44140;BME280;29803;51.048;4.686;2024-02-23T00:41:08;99015.84;;;6.78;100.00
44140;BME280;29803;51.048;4.686;2024-02-23T00:43:40;99022.47;;;6.82;100.00
44140;BME280;29803;51.048;4.686;2024-02-23T00:46:11;99025.25;;;6.73;100.00
44140;BME280;29803;51.048;4.686;2024-02-23T00:48:42;99016.44;;;6.58;100.00
44140;BME280;29803;51.048;4.686;2024-02-23T00:51:12;99042.88;;;6.74;100.00
44140;BME280;29803;51.048;4.686;2024-02-23T00:53:43;99035.72;;;6.60;100.00
44140;BME280;29803;51.048;4.686;2024-02-23T00:56:13;99048.78;;;6.70;100.00
44140;BME280;29803;51.048;4.686;2024-02-23T00:58:44;99045.28;;;6.69;100.00
44140;BME280;29803;51.048;4.686;2024-02-23T01:01:14;99045.09;;;6.71;100.00
44140;BME280;29803;51.048;4.686;2024-02-23T01:03:45;99044.00;;;6.65;100.00
44140;BME280;29803;51.048;4.686;2024-02-23T01:06:15;99056.75;;;6.70;100.00
44140;BME280;29803;51.048;4.686;2024-02-23T01:08:47;99057.41;;;6.72;100.00
44140;BME280;29803;51.048;4.686;2024-02-23T01:11:17;99062.28;;;6.68;100.00
44140;BME280;29803;51.048;4.686;2024-02-23T01:13:48;99068.59;;;6.67;100.00
44140;BME280;29803;51.048;4.686;2024-02-23T01:16:18;99061.81;;;6.50;100.00
44140;BME280;29803;51.048;4.686;2024-02-23T01:18:49;99073.94;;;6.67;100.00
44140;BME280;29803;51.048;4.686;2024-02-23T01:21:19;99076.16;;;6.64;100.00
44140;BME280;29803;51.048;4.686;2024-02-23T01:23:50;99075.13;;;6.50;100.00
44140;BME280;29803;51.048;4.686;2024-02-23T01:26:20;99080.28;;;6.52;100.00
44140;BME280;29803;51.048;4.686;2024-02-23T01:28:50;99076.31;;;6.47;100.00
44140;BME280;29803;51.048;4.686;2024-02-23T01:31:21;99073.09;;;6.37;100.00
44140;BME280;29803;51.048;4.686;2024-02-23T01:33:51;99060.34;;;6.33;100.00
44140;BME280;29803;51.048;4.686;2024-02-23T01:36:22;99062.00;;;6.34;100.00
44140;BME280;29803;51.048;4.686;2024-02-23T01:38:52;99069.25;;;6.40;100.00
44140;BME280;29803;51.048;4.686;2024-02-23T01:41:23;99053.56;;;6.45;100.00
44140;BME280;29803;51.048;4.686;2024-02-23T01:43:53;99066.78;;;6.53;100.00
44140;BME280;29803;51.048;4.686;2024-02-23T01:46:24;99077.72;;;6.43;100.00
44140;BME280;29803;51.048;4.686;2024-02-23T01:48:55;99064.00;;;6.32;100.00
44140;BME280;29803;51.048;4.686;2024-02-23T01:51:25;99072.91;;;6.24;100.00
44140;BME280;29803;51.048;4.686;2024-02-23T01:53:56;99070.00;;;6.34;100.00
44140;BME280;29803;51.048;4.686;2024-02-23T01:56:26;99064.94;;;6.24;100.00
44140;BME280;29803;51.048;4.686;2024-02-23T01:58:58;99057.97;;;6.38;100.00
44140;BME280;29803;51.048;4.686;2024-02-23T02:01:30;99056.84;;;6.32;100.00
44140;BME280;29803;51.048;4.686;2024-02-23T02:04:01;99049.25;;;6.44;100.00
44140;BME280;29803;51.048;4.686;2024-02-23T02:06:45;99066.50;;;6.33;100.00
44140;BME280;29803;51.048;4.686;2024-02-23T02:09:17;99058.69;;;6.32;100.00
44140;BME280;29803;51.048;4.686;2024-02-23T02:11:48;99056.22;;;6.30;100.00
44140;BME280;29803;51.048;4.686;2024-02-23T02:14:19;99062.00;;;6.34;100.00
44140;BME280;29803;51.048;4.686;2024-02-23T02:16:50;99071.91;;;6.25;100.00
44140;BME280;29803;51.048;4.686;2024-02-23T02:19:20;99068.63;;;6.38;100.00
44140;BME280;29803;51.048;4.686;2024-02-23T02:21:51;99075.94;;;6.36;100.00
44140;BME280;29803;51.048;4.686;2024-02-23T02:24:22;99067.59;;;6.24;100.00
44140;BME280;29803;51.048;4.686;2024-02-23T02:26:52;99071.91;;;6.25;100.00
44140;BME280;29803;51.048;4.686;2024-02-23T02:29:23;99069.53;;;6.30;100.00
44140;BME280;29803;51.048;4.686;2024-02-23T02:31:53;99073.38;;;6.28;100.00
44140;BME280;29803;51.048;4.686;2024-02-23T02:34:23;99068.19;;;6.11;100.00
44140;BME280;29803;51.048;4.686;2024-02-23T02:36:54;99073.09;;;6.08;100.00
44140;BME280;29803;51.048;4.686;2024-02-23T02:39:25;99075.31;;;6.19;100.00
44140;BME280;29803;51.048;4.686;2024-02-23T02:41:55;99067.66;;;6.16;100.00
44140;BME280;29803;51.048;4.686;2024-02-23T02:44:27;99067.78;;;6.22;100.00
44140;BME280;29803;51.048;4.686;2024-02-23T02:47:00;99074.38;;;6.27;100.00
44140;BME280;29803;51.048;4.686;2024-02-23T02:49:31;99074.63;;;6.17;100.00
44140;BME280;29803;51.048;4.686;2024-02-23T02:52:02;99072.25;;;6.22;100.00
44140;BME280;29803;51.048;4.686;2024-02-23T02:54:33;99073.47;;;6.19;100.00
44140;BME280;29803;51.048;4.686;2024-02-23T02:57:03;99074.22;;;6.28;100.00
44140;BME280;29803;51.048;4.686;2024-02-23T02:59:34;99079.81;;;6.33;100.00
44140;BME280;29803;51.048;4.686;2024-02-23T03:02:05;99069.59;;;6.22;100.00
44140;BME280;29803;51.048;4.686;2024-02-23T03:04:36;99071.91;;;6.25;100.00
44140;BME280;29803;51.048;4.686;2024-02-23T03:07:07;99082.94;;;6.37;100.00
44140;BME280;29803;51.048;4.686;2024-02-23T03:09:37;99077.72;;;6.43;100.00
44140;BME280;29803;51.048;4.686;2024-02-23T03:12:08;99086.34;;;6.45;100.00
44140;BME280;29803;51.048;4.686;2024-02-23T03:14:39;99084.22;;;6.41;100.00
44140;BME280;29803;51.048;4.686;2024-02-23T03:17:10;99074.59;;;6.55;100.00
44140;BME280;29803;51.048;4.686;2024-02-23T03:19:43;99074.88;;;6.45;100.00
44140;BME280;29803;51.048;4.686;2024-02-23T03:22:13;99065.31;;;6.65;100.00
44140;BME280;29803;51.048;4.686;2024-02-23T03:24:46;99064.75;;;6.55;100.00
44140;BME280;29803;51.048;4.686;2024-02-23T03:27:17;99063.84;;;6.48;100.00
44140;BME280;29803;51.048;4.686;2024-02-23T03:29:47;99060.91;;;6.58;100.00
44140;BME280;29803;51.048;4.686;2024-02-23T03:32:22;99066.22;;;6.72;100.00
44140;BME280;29803;51.048;4.686;2024-02-23T03:35:02;99057.59;;;6.56;100.00
44140;BME280;29803;51.048;4.686;2024-02-23T03:37:33;99068.78;;;6.51;100.00
44140;BME280;29803;51.048;4.686;2024-02-23T03:40:05;99063.28;;;6.67;100.00
44140;BME280;29803;51.048;4.686;2024-02-23T03:42:36;99060.72;;;6.74;100.00
44140;BME280;29803;51.048;4.686;2024-02-23T03:45:07;99062.44;;;6.67;100.00
44140;BME280;29803;51.048;4.686;2024-02-23T03:47:38;99062.72;;;6.57;100.00
44140;BME280;29803;51.048;4.686;2024-02-23T03:50:09;99054.84;;;6.64;100.00
44140;BME280;29803;51.048;4.686;2024-02-23T03:52:40;99060.44;;;6.54;100.00
44140;BME280;29803;51.048;4.686;2024-02-23T03:55:10;99069.81;;;6.65;100.00
44140;BME280;29803;51.048;4.686;2024-02-23T03:57:41;99066.13;;;6.66;100.00
44140;BME280;29803;51.048;4.686;2024-02-23T04:00:12;99073.13;;;6.67;100.00
44140;BME280;29803;51.048;4.686;2024-02-23T04:02:42;99065.31;;;6.65;100.00
44140;BME280;29803;51.048;4.686;2024-02-23T04:05:13;99068.88;;;6.72;100.00
44140;BME280;29803;51.048;4.686;2024-02-23T04:07:43;99072.75;;;6.85;100.00
44140;BME280;29803;51.048;4.686;2024-02-23T04:10:14;99068.78;;;6.81;100.00
44140;BME280;29803;51.048;4.686;2024-02-23T04:12:47;99062.00;;;6.93;100.00
44140;BME280;29803;51.048;4.686;2024-02-23T04:15:17;99068.44;;;6.84;100.00
44140;BME280;29803;51.048;4.686;2024-02-23T04:17:48;99053.16;;;6.78;100.00
44140;BME280;29803;51.048;4.686;2024-02-23T04:20:18;99068.78;;;6.95;100.00
44140;BME280;29803;51.048;4.686;2024-02-23T04:22:49;99062.44;;;6.96;100.00
44140;BME280;29803;51.048;4.686;2024-02-23T04:25:19;99064.81;;;6.91;100.00
44140;BME280;29803;51.048;4.686;2024-02-23T04:27:50;99068.88;;;6.87;100.00
44140;BME280;29803;51.048;4.686;2024-02-23T04:30:20;99054.56;;;6.88;100.00
44140;BME280;29803;51.048;4.686;2024-02-23T04:32:51;99060.13;;;7.08;100.00
44140;BME280;29803;51.048;4.686;2024-02-23T04:35:21;99050.47;;;6.92;100.00
44140;BME280;29803;51.048;4.686;2024-02-23T04:37:52;99051.59;;;6.98;100.00
44140;BME280;29803;51.048;4.686;2024-02-23T04:40:22;99051.47;;;7.06;100.00
44140;BME280;29803;51.048;4.686;2024-02-23T04:42:53;99053.81;;;6.94;100.00
44140;BME280;29803;51.048;4.686;2024-02-23T04:45:23;99047.69;;;7.15;100.00
44140;BME280;29803;51.048;4.686;2024-02-23T04:47:54;99046.34;;;7.05;100.00
44140;BME280;29803;51.048;4.686;2024-02-23T04:50:24;99046.06;;;6.99;100.00
44140;BME280;29803;51.048;4.686;2024-02-23T04:52:55;99052.47;;;7.20;100.00
44140;BME280;29803;51.048;4.686;2024-02-23T04:55:25;99049.53;;;7.15;100.00
44140;BME280;29803;51.048;4.686;2024-02-23T04:57:56;99055.53;;;7.02;100.00
44140;BME280;29803;51.048;4.686;2024-02-23T05:00:26;99063.72;;;7.00;100.00
44140;BME280;29803;51.048;4.686;2024-02-23T05:03:03;99061.50;;;7.04;100.00
44140;BME280;29803;51.048;4.686;2024-02-23T05:05:35;99069.56;;;7.11;100.00
44140;BME280;29803;51.048;4.686;2024-02-23T05:08:05;99062.25;;;6.98;100.00
44140;BME280;29803;51.048;4.686;2024-02-23T05:10:36;99073.00;;;7.05;100.00
44140;BME280;29803;51.048;4.686;2024-02-23T05:13:06;99070.59;;;7.10;100.00
44140;BME280;29803;51.048;4.686;2024-02-23T05:15:37;99067.84;;;7.03;100.00
44140;BME280;29803;51.048;4.686;2024-02-23T05:18:07;99078.78;;;7.08;100.00
44140;BME280;29803;51.048;4.686;2024-02-23T05:20:38;99056.47;;;6.94;100.00
44140;BME280;29803;51.048;4.686;2024-02-23T05:23:08;99065.47;;;7.08;100.00
44140;BME280;29803;51.048;4.686;2024-02-23T05:25:39;99068.19;;;7.15;100.00
44140;BME280;29803;51.048;4.686;2024-02-23T05:28:09;99072.97;;;7.19;100.00
44140;BME280;29803;51.048;4.686;2024-02-23T05:30:40;99065.06;;;7.11;100.00
44140;BME280;29803;51.048;4.686;2024-02-23T05:33:10;99060.41;;;6.98;100.00
44140;BME280;29803;51.048;4.686;2024-02-23T05:35:41;99043.28;;;7.08;100.00
44140;BME280;29803;51.048;4.686;2024-02-23T05:38:11;99057.25;;;7.10;100.00
44140;BME280;29803;51.048;4.686;2024-02-23T05:40:42;99038.50;;;7.18;100.00
44140;BME280;29803;51.048;4.686;2024-02-23T05:43:13;99051.44;;;7.21;100.00
44140;BME280;29803;51.048;4.686;2024-02-23T05:45:43;99044.81;;;7.17;100.00
44140;BME280;29803;51.048;4.686;2024-02-23T05:48:15;99037.66;;;7.17;100.00
44140;BME280;29803;51.048;4.686;2024-02-23T05:50:46;99041.97;;;7.18;100.00
44140;BME280;29803;51.048;4.686;2024-02-23T05:53:16;99038.69;;;7.01;100.00
44140;BME280;29803;51.048;4.686;2024-02-23T05:55:46;99042.97;;;7.17;100.00
44140;BME280;29803;51.048;4.686;2024-02-23T05:58:17;99041.03;;;7.26;100.00
44140;BME280;29803;51.048;4.686;2024-02-23T06:00:47;99057.88;;;7.12;100.00
44140;BME280;29803;51.048;4.686;2024-02-23T06:03:18;99045.66;;;7.17;100.00
44140;BME280;29803;51.048;4.686;2024-02-23T06:05:48;99051.19;;;7.16;100.00
44140;BME280;29803;51.048;4.686;2024-02-23T06:08:19;99053.88;;;7.01;100.00
44140;BME280;29803;51.048;4.686;2024-02-23T06:10:49;99054.03;;;7.14;100.00
44140;BME280;29803;51.048;4.686;2024-02-23T06:13:20;99061.03;;;7.15;100.00
44140;BME280;29803;51.048;4.686;2024-02-23T06:15:50;99050.31;;;7.30;100.00
44140;BME280;29803;51.048;4.686;2024-02-23T06:18:21;99043.72;;;7.11;100.00
44140;BME280;29803;51.048;4.686;2024-02-23T06:20:51;99043.41;;;6.99;100.00
44140;BME280;29803;51.048;4.686;2024-02-23T06:23:22;99034.91;;;7.11;100.00
44140;BME280;29803;51.048;4.686;2024-02-23T06:25:52;99037.94;;;7.08;100.00
44140;BME280;29803;51.048;4.686;2024-02-23T06:28:23;99031.53;;;7.02;100.00
44140;BME280;29803;51.048;4.686;2024-02-23T06:30:53;99044.84;;;7.02;100.00
44140;BME280;29803;51.048;4.686;2024-02-23T06:33:24;99039.69;;;7.15;100.00
44140;BME280;29803;51.048;4.686;2024-02-23T06:35:55;99037.94;;;7.08;100.00
44140;BME280;29803;51.048;4.686;2024-02-23T06:38:25;99024.34;;;7.03;100.00
44140;BME280;29803;51.048;4.686;2024-02-23T06:40:56;99036.56;;;7.12;100.00
44140;BME280;29803;51.048;4.686;2024-02-23T06:43:26;99036.19;;;7.15;100.00
44140;BME280;29803;51.048;4.686;2024-02-23T06:45:57;99045.75;;;7.24;100.00
44140;BME280;29803;51.048;4.686;2024-02-23T06:48:27;99031.31;;;7.18;100.00
44140;BME280;29803;51.048;4.686;2024-02-23T06:50:58;99036.72;;;7.25;100.00
44140;BME280;29803;51.048;4.686;2024-02-23T06:53:28;99045.66;;;7.17;100.00
44140;BME280;29803;51.048;4.686;2024-02-23T06:55:59;99039.50;;;7.17;100.00
44140;BME280;29803;51.048;4.686;2024-02-23T06:58:29;99042.03;;;7.04;100.00
44140;BME280;29803;51.048;4.686;2024-02-23T07:01:00;99049.94;;;7.33;100.00
44140;BME280;29803;51.048;4.686;2024-02-23T07:03:31;99040.97;;;7.19;100.00
44140;BME280;29803;51.048;4.686;2024-02-23T07:06:02;99031.75;;;7.22;100.00
44140;BME280;29803;51.048;4.686;2024-02-23T07:08:33;99042.69;;;7.27;100.00
44140;BME280;29803;51.048;4.686;2024-02-23T07:11:03;99033.03;;;7.26;100.00
44140;BME280;29803;51.048;4.686;2024-02-23T07:13:34;99048.22;;;7.47;100.00
44140;BME280;29803;51.048;4.686;2024-02-23T07:16:05;99045.44;;;7.34;100.00
44140;BME280;29803;51.048;4.686;2024-02-23T07:18:35;99048.94;;;7.34;100.00
44140;BME280;29803;51.048;4.686;2024-02-23T07:21:06;99046.63;;;7.52;100.00
44140;BME280;29803;51.048;4.686;2024-02-23T07:23:36;99027.50;;;7.27;100.00
44140;BME280;29803;51.048;4.686;2024-02-23T07:26:07;99045.84;;;7.37;100.00
44140;BME280;29803;51.048;4.686;2024-02-23T07:28:37;99040.78;;;7.42;100.00
44140;BME280;29803;51.048;4.686;2024-02-23T07:31:08;99040.00;;;7.27;100.00
44140;BME280;29803;51.048;4.686;2024-02-23T07:33:40;99038.44;;;7.54;100.00
44140;BME280;29803;51.048;4.686;2024-02-23T07:36:15;99040.03;;;7.48;100.00
44140;BME280;29803;51.048;4.686;2024-02-23T07:38:45;99026.31;;;7.30;100.00
44140;BME280;29803;51.048;4.686;2024-02-23T07:41:16;99028.88;;;7.38;100.00
44140;BME280;29803;51.048;4.686;2024-02-23T07:43:48;99037.50;;;7.40;100.00
44140;BME280;29803;51.048;4.686;2024-02-23T07:46:19;99038.41;;;7.33;100.00
44140;BME280;29803;51.048;4.686;2024-02-23T07:48:50;99027.28;;;7.44;100.00
44140;BME280;29803;51.048;4.686;2024-02-23T07:51:21;99028.91;;;7.45;100.00
44140;BME280;29803;51.048;4.686;2024-02-23T07:53:51;99027.31;;;7.50;100.00
44140;BME280;29803;51.048;4.686;2024-02-23T07:56:22;99021.91;;;7.65;100.00
44140;BME280;29803;51.048;4.686;2024-02-23T07:58:53;99028.09;;;7.66;100.00
44140;BME280;29803;51.048;4.686;2024-02-23T08:01:24;99044.41;;;7.77;100.00
44140;BME280;29803;51.048;4.686;2024-02-23T08:03:56;99029.19;;;7.78;100.00
44140;BME280;29803;51.048;4.686;2024-02-23T08:06:27;99027.63;;;7.84;100.00
44140;BME280;29803;51.048;4.686;2024-02-23T08:08:58;99009.44;;;7.94;100.00
44140;BME280;29803;51.048;4.686;2024-02-23T08:11:28;99023.59;;;7.94;100.00
44140;BME280;29803;51.048;4.686;2024-02-23T08:13:59;99012.44;;;7.84;100.00
44140;BME280;29803;51.048;4.686;2024-02-23T08:16:29;99033.25;;;7.95;100.00
44140;BME280;29803;51.048;4.686;2024-02-23T08:19:00;99022.09;;;7.85;100.00
44140;BME280;29803;51.048;4.686;2024-02-23T08:21:31;99028.13;;;7.94;100.00
44140;BME280;29803;51.048;4.686;2024-02-23T08:24:01;99022.69;;;8.09;100.00
44140;BME280;29803;51.048;4.686;2024-02-23T08:26:33;99026.94;;;8.03;100.00
44140;BME280;29803;51.048;4.686;2024-02-23T08:29:04;99027.38;;;8.07;100.00
44140;BME280;29803;51.048;4.686;2024-02-23T08:31:35;99032.69;;;8.00;100.00
44140;BME280;29803;51.048;4.686;2024-02-23T08:34:05;99034.53;;;7.99;100.00
44140;BME280;29803;51.048;4.686;2024-02-23T08:36:36;99032.28;;;8.03;100.00
44140;BME280;29803;51.048;4.686;2024-02-23T08:39:07;99031.28;;;8.04;100.00
44140;BME280;29803;51.048;4.686;2024-02-23T08:41:39;99030.56;;;7.89;100.00
44140;BME280;29803;51.048;4.686;2024-02-23T08:44:09;99048.66;;;7.93;100.00
44140;BME280;29803;51.048;4.686;2024-02-23T08:46:40;99040.81;;;7.64;100.00
44140;BME280;29803;51.048;4.686;2024-02-23T08:49:10;99051.66;;;7.62;100.00
44140;BME280;29803;51.048;4.686;2024-02-23T08:51:41;99057.81;;;7.63;100.00
44140;BME280;29803;51.048;4.686;2024-02-23T08:54:11;99063.72;;;7.37;100.00
44140;BME280;29803;51.048;4.686;2024-02-23T08:56:42;99062.94;;;7.43;100.00
44140;BME280;29803;51.048;4.686;2024-02-23T08:59:12;99050.81;;;7.19;100.00
44140;BME280;29803;51.048;4.686;2024-02-23T09:01:43;99053.09;;;7.22;100.00
44140;BME280;29803;51.048;4.686;2024-02-23T09:04:14;99059.44;;;7.21;100.00
44140;BME280;29803;51.048;4.686;2024-02-23T09:06:45;99064.66;;;7.29;100.00
44140;BME280;29803;51.048;4.686;2024-02-23T09:09:16;99056.41;;;7.24;100.00
44140;BME280;29803;51.048;4.686;2024-02-23T09:11:46;99051.91;;;7.24;100.00
44140;BME280;29803;51.048;4.686;2024-02-23T09:14:17;99046.44;;;6.96;100.00
44140;BME280;29803;51.048;4.686;2024-02-23T09:16:47;99041.72;;;7.13;100.00
44140;BME280;29803;51.048;4.686;2024-02-23T09:19:20;99055.50;;;7.17;100.00
44140;BME280;29803;51.048;4.686;2024-02-23T09:21:51;99048.22;;;7.25;100.00
44140;BME280;29803;51.048;4.686;2024-02-23T09:24:21;99062.78;;;7.08;100.00
44140;BME280;29803;51.048;4.686;2024-02-23T09:26:52;99053.56;;;7.47;100.00
44140;BME280;29803;51.048;4.686;2024-02-23T09:29:23;99052.66;;;7.40;100.00
44140;BME280;29803;51.048;4.686;2024-02-23T09:31:53;99062.00;;;7.50;100.00
44140;BME280;29803;51.048;4.686;2024-02-23T09:34:24;99065.88;;;7.48;100.00
44140;BME280;29803;51.048;4.686;2024-02-23T09:36:55;99062.22;;;7.49;100.00
44140;BME280;29803;51.048;4.686;2024-02-23T09:39:26;99061.50;;;7.62;100.00
44140;BME280;29803;51.048;4.686;2024-02-23T09:42:01;99058.91;;;7.90;100.00
44140;BME280;29803;51.048;4.686;2024-02-23T09:44:32;99069.75;;;8.10;100.00
44140;BME280;29803;51.048;4.686;2024-02-23T09:47:05;99054.38;;;7.90;100.00
44140;BME280;29803;51.048;4.686;2024-02-23T09:49:40;99076.41;;;8.20;100.00
44140;BME280;29803;51.048;4.686;2024-02-23T09:52:11;99075.91;;;8.10;100.00
44140;BME280;29803;51.048;4.686;2024-02-23T09:54:42;99071.38;;;8.11;100.00
44140;BME280;29803;51.048;4.686;2024-02-23T09:57:13;99083.78;;;8.18;100.00
44140;BME280;29803;51.048;4.686;2024-02-23T09:59:45;99083.34;;;8.43;100.00
44140;BME280;29803;51.048;4.686;2024-02-23T10:02:16;99081.00;;;8.54;100.00
44140;BME280;29803;51.048;4.686;2024-02-23T10:04:48;99083.94;;;8.66;100.00
44140;BME280;29803;51.048;4.686;2024-02-23T10:07:20;99086.16;;;8.63;100.00
44140;BME280;29803;51.048;4.686;2024-02-23T10:09:50;99092.28;;;8.56;100.00
44140;BME280;29803;51.048;4.686;2024-02-23T10:12:21;99079.81;;;8.64;100.00
44140;BME280;29803;51.048;4.686;2024-02-23T10:14:52;99094.03;;;8.71;100.00
44140;BME280;29803;51.048;4.686;2024-02-23T10:17:23;99076.00;;;8.79;100.00
44140;BME280;29803;51.048;4.686;2024-02-23T10:19:54;99087.53;;;8.87;100.00
44140;BME280;29803;51.048;4.686;2024-02-23T10:22:25;99086.31;;;8.89;100.00
44140;BME280;29803;51.048;4.686;2024-02-23T10:24:58;99094.25;;;9.11;100.00
44140;BME280;29803;51.048;4.686;2024-02-23T10:27:29;99084.94;;;9.61;100.00
44140;BME280;29803;51.048;4.686;2024-02-23T10:30:00;99098.69;;;9.45;100.00
44140;BME280;29803;51.048;4.686;2024-02-23T10:32:30;99093.72;;;9.35;100.00
44140;BME280;29803;51.048;4.686;2024-02-23T10:35:01;99092.78;;;9.08;100.00
44140;BME280;29803;51.048;4.686;2024-02-23T10:37:34;99084.34;;;9.11;100.00
44140;BME280;29803;51.048;4.686;2024-02-23T10:40:06;99094.00;;;8.99;100.00
44140;BME280;29803;51.048;4.686;2024-02-23T10:42:38;99106.78;;;8.41;100.00
44140;BME280;29803;51.048;4.686;2024-02-23T10:45:09;99102.25;;;8.41;100.00
44140;BME280;29803;51.048;4.686;2024-02-23T10:47:40;99115.31;;;8.57;100.00
44140;BME280;29803;51.048;4.686;2024-02-23T10:50:12;99107.13;;;8.59;100.00
44140;BME280;29803;51.048;4.686;2024-02-23T10:52:45;99114.59;;;8.70;100.00
44140;BME280;29803;51.048;4.686;2024-02-23T10:55:15;99105.91;;;8.62;100.00
44140;BME280;29803;51.048;4.686;2024-02-23T10:57:48;99118.53;;;8.74;100.00
44140;BME280;29803;51.048;4.686;2024-02-23T11:00:22;99118.56;;;8.81;100.00
44140;BME280;29803;51.048;4.686;2024-02-23T11:02:54;99112.97;;;8.76;100.00
44140;BME280;29803;51.048;4.686;2024-02-23T11:05:27;99102.16;;;8.91;100.00
44140;BME280;29803;51.048;4.686;2024-02-23T11:07:59;99119.94;;;8.70;100.00
44140;BME280;29803;51.048;4.686;2024-02-23T11:10:30;99119.00;;;8.85;100.00
44140;BME280;29803;51.048;4.686;2024-02-23T11:13:01;99116.81;;;9.01;100.00
44140;BME280;29803;51.048;4.686;2024-02-23T11:15:31;99105.31;;;9.07;100.00
44140;BME280;29803;51.048;4.686;2024-02-23T11:18:04;99109.91;;;9.20;100.00
44140;BME280;29803;51.048;4.686;2024-02-23T11:20:59;99122.50;;;9.33;100.00
44140;BME280;29803;51.048;4.686;2024-02-23T11:23:45;99126.63;;;9.29;100.00
44140;BME280;29803;51.048;4.686;2024-02-23T11:26:15;99118.78;;;9.27;100.00
44140;BME280;29803;51.048;4.686;2024-02-23T11:28:51;99116.53;;;9.31;100.00
44140;BME280;29803;51.048;4.686;2024-02-23T11:31:24;99135.81;;;9.13;100.00
44140;BME280;29803;51.048;4.686;2024-02-23T11:33:57;99115.28;;;9.20;100.00
44140;BME280;29803;51.048;4.686;2024-02-23T11:36:31;99119.88;;;9.40;100.00
44140;BME280;29803;51.048;4.686;2024-02-23T11:39:02;99128.31;;;9.43;100.00
44140;BME280;29803;51.048;4.686;2024-02-23T11:41:33;99107.13;;;9.48;100.00
44140;BME280;29803;51.048;4.686;2024-02-23T11:44:05;99124.84;;;9.49;100.00
44140;BME280;29803;51.048;4.686;2024-02-23T11:46:37;99119.16;;;9.79;100.00
44140;BME280;29803;51.048;4.686;2024-02-23T11:49:07;99123.81;;;9.50;100.00
44140;BME280;29803;51.048;4.686;2024-02-23T11:51:38;99118.09;;;9.73;100.00
44140;BME280;29803;51.048;4.686;2024-02-23T11:54:09;99132.28;;;9.60;100.00
44140;BME280;29803;51.048;4.686;2024-02-23T11:56:40;99120.78;;;9.67;100.00
44140;BME280;29803;51.048;4.686;2024-02-23T11:59:11;99117.28;;;9.66;100.00
44140;BME280;29803;51.048;4.686;2024-02-23T12:01:41;99112.69;;;9.40;100.00
44140;BME280;29803;51.048;4.686;2024-02-23T12:04:12;99124.41;;;9.39;100.00
44140;BME280;29803;51.048;4.686;2024-02-23T12:06:43;99111.25;;;9.51;100.00
44140;BME280;29803;51.048;4.686;2024-02-23T12:09:14;99119.06;;;9.39;100.00
44140;BME280;29803;51.048;4.686;2024-02-23T12:11:45;99117.44;;;9.58;100.00
44140;BME280;29803;51.048;4.686;2024-02-23T12:14:15;99110.22;;;9.52;100.00
44140;BME280;29803;51.048;4.686;2024-02-23T12:16:46;99114.69;;;9.31;100.00
44140;BME280;29803;51.048;4.686;2024-02-23T12:19:17;99127.25;;;9.31;100.00
44140;BME280;29803;51.048;4.686;2024-02-23T12:21:47;99124.34;;;9.19;100.00
44140;BME280;29803;51.048;4.686;2024-02-23T12:24:18;99119.44;;;9.36;100.00
44140;BME280;29803;51.048;4.686;2024-02-23T12:26:54;99126.28;;;9.45;100.00
44140;BME280;29803;51.048;4.686;2024-02-23T12:29:24;99123.78;;;9.37;100.00
44140;BME280;29803;51.048;4.686;2024-02-23T12:32:04;99137.81;;;9.52;100.00
44140;BME280;29803;51.048;4.686;2024-02-23T12:34:35;99125.63;;;9.43;100.00
44140;BME280;29803;51.048;4.686;2024-02-23T12:37:07;99125.41;;;9.31;100.00
44140;BME280;29803;51.048;4.686;2024-02-23T12:39:38;99130.38;;;9.41;100.00
44140;BME280;29803;51.048;4.686;2024-02-23T12:42:09;99124.41;;;9.46;100.00
44140;BME280;29803;51.048;4.686;2024-02-23T12:44:39;99123.00;;;9.56;100.00
44140;BME280;29803;51.048;4.686;2024-02-23T12:47:10;99119.53;;;9.63;100.00
44140;BME280;29803;51.048;4.686;2024-02-23T12:49:40;99126.06;;;9.40;100.00
44140;BME280;29803;51.048;4.686;2024-02-23T12:52:12;99118.06;;;9.53;100.00
44140;BME280;29803;51.048;4.686;2024-02-23T12:54:42;99109.47;;;9.71;100.00
44140;BME280;29803;51.048;4.686;2024-02-23T12:57:13;99115.28;;;10.01;100.00
44140;BME280;29803;51.048;4.686;2024-02-23T12:59:43;99117.56;;;10.11;100.00
44140;BME280;29803;51.048;4.686;2024-02-23T13:02:13;99112.59;;;10.01;100.00
44140;BME280;29803;51.048;4.686;2024-02-23T13:04:44;99119.84;;;10.14;100.00
44140;BME280;29803;51.048;4.686;2024-02-23T13:07:19;99104.38;;;10.09;100.00
44140;BME280;29803;51.048;4.686;2024-02-23T13:09:50;99118.75;;;9.75;100.00
44140;BME280;29803;51.048;4.686;2024-02-23T13:12:20;99124.72;;;9.77;100.00
44140;BME280;29803;51.048;4.686;2024-02-23T13:14:51;99122.06;;;10.04;100.00
44140;BME280;29803;51.048;4.686;2024-02-23T13:17:22;99121.25;;;9.90;100.00
44140;BME280;29803;51.048;4.686;2024-02-23T13:19:53;99115.63;;;9.78;100.00